sensor_id;sensor_type;location;lat;lon;timestamp;pressure;altitude;pressure_sealevel;temperature;humidity
47220;BME280;32961;51.936;4.788;2023-04-09T00:01:28;102573.22;;;8.46;100.00
47220;BME280;32961;51.936;4.788;2023-04-09T00:03:56;102565.88;;;8.48;100.00
47220;BME280;32961;51.936;4.788;2023-04-09T00:06:24;102569.38;;;8.50;100.00
47220;BME280;32961;51.936;4.788;2023-04-09T00:08:52;102572.88;;;8.53;100.00
47220;BME280;32961;51.936;4.788;2023-04-09T00:11:20;102578.19;;;8.54;100.00
47220;BME280;32961;51.936;4.788;2023-04-09T00:13:49;102570.97;;;8.55;100.00
47220;BME280;32961;51.936;4.788;2023-04-09T00:16:17;102574.53;;;8.55;100.00
47220;BME280;32961;51.936;4.788;2023-04-09T00:18:45;102558.19;;;8.57;100.00
47220;BME280;32961;51.936;4.788;2023-04-09T00:21:12;102566.13;;;8.60;100.00
47220;BME280;32961;51.936;4.788;2023-04-09T00:23:41;102558.06;;;8.58;100.00
47220;BME280;32961;51.936;4.788;2023-04-09T00:26:09;102557.06;;;8.61;100.00
47220;BME280;32961;51.936;4.788;2023-04-09T00:28:37;102554.41;;;8.59;100.00
47220;BME280;32961;51.936;4.788;2023-04-09T00:31:06;102553.56;;;8.59;100.00
47220;BME280;32961;51.936;4.788;2023-04-09T00:33:35;102551.63;;;8.61;100.00
47220;BME280;32961;51.936;4.788;2023-04-09T00:36:03;102548.81;;;8.62;100.00
47220;BME280;32961;51.936;4.788;2023-04-09T00:38:31;102547.94;;;8.62;100.00
47220;BME280;32961;51.936;4.788;2023-04-09T00:40:59;102551.53;;;8.62;100.00
47220;BME280;32961;51.936;4.788;2023-04-09T00:43:27;102546.13;;;8.62;100.00
47220;BME280;32961;51.936;4.788;2023-04-09T00:45:55;102546.13;;;8.62;100.00
47220;BME280;32961;51.936;4.788;2023-04-09T00:48:26;102538.94;;;8.61;100.00
47220;BME280;32961;51.936;4.788;2023-04-09T00:50:53;102539.81;;;8.62;100.00
47220;BME280;32961;51.936;4.788;2023-04-09T00:53:21;102540.69;;;8.62;100.00
47220;BME280;32961;51.936;4.788;2023-04-09T00:55:49;102536.94;;;8.65;100.00
47220;BME280;32961;51.936;4.788;2023-04-09T00:58:17;102541.50;;;8.64;100.00
47220;BME280;32961;51.936;4.788;2023-04-09T01:00:45;102542.34;;;8.65;100.00
47220;BME280;32961;51.936;4.788;2023-04-09T01:03:13;102538.78;;;8.64;100.00
47220;BME280;32961;51.936;4.788;2023-04-09T01:05:49;102535.97;;;8.66;100.00
47220;BME280;32961;51.936;4.788;2023-04-09T01:08:31;102542.16;;;8.68;100.00
47220;BME280;32961;51.936;4.788;2023-04-09T01:11:05;102537.63;;;8.69;100.00
47220;BME280;32961;51.936;4.788;2023-04-09T01:13:41;102533.97;;;8.70;100.00
47220;BME280;32961;51.936;4.788;2023-04-09T01:16:14;102532.91;;;8.72;100.00
47220;BME280;32961;51.936;4.788;2023-04-09T01:18:49;102532.00;;;8.72;100.00
47220;BME280;32961;51.936;4.788;2023-04-09T01:21:24;102533.75;;;8.73;100.00
47220;BME280;32961;51.936;4.788;2023-04-09T01:23:57;102534.66;;;8.73;100.00
47220;BME280;32961;51.936;4.788;2023-04-09T01:26:40;102535.41;;;8.75;100.00
47220;BME280;32961;51.936;4.788;2023-04-09T01:29:14;102531.84;;;8.75;100.00
47220;BME280;32961;51.936;4.788;2023-04-09T01:31:43;102527.28;;;8.75;100.00
47220;BME280;32961;51.936;4.788;2023-04-09T01:34:12;102529.91;;;8.77;100.00
47220;BME280;32961;51.936;4.788;2023-04-09T01:36:44;102529.91;;;8.77;100.00
47220;BME280;32961;51.936;4.788;2023-04-09T01:39:12;102532.44;;;8.80;100.00
47220;BME280;32961;51.936;4.788;2023-04-09T01:41:41;102534.28;;;8.79;100.00
47220;BME280;32961;51.936;4.788;2023-04-09T01:44:10;102533.31;;;8.80;100.00
47220;BME280;32961;51.936;4.788;2023-04-09T01:46:40;102534.28;;;8.79;100.00
47220;BME280;32961;51.936;4.788;2023-04-09T01:49:09;102546.78;;;8.82;100.00
47220;BME280;32961;51.936;4.788;2023-04-09T01:51:37;102530.50;;;8.82;99.94
47220;BME280;32961;51.936;4.788;2023-04-09T01:54:05;102535.84;;;8.83;99.73
47220;BME280;32961;51.936;4.788;2023-04-09T01:56:40;102542.13;;;8.84;99.72
47220;BME280;32961;51.936;4.788;2023-04-09T01:59:08;102533.91;;;8.86;99.33
47220;BME280;32961;51.936;4.788;2023-04-09T02:01:39;102536.69;;;8.84;99.16
47220;BME280;32961;51.936;4.788;2023-04-09T02:04:15;102538.44;;;8.85;99.04
47220;BME280;32961;51.936;4.788;2023-04-09T02:06:48;102536.44;;;8.89;98.58
47220;BME280;32961;51.936;4.788;2023-04-09T02:09:19;102543.09;;;8.83;98.39
47220;BME280;32961;51.936;4.788;2023-04-09T02:11:49;102543.88;;;8.85;98.58
47220;BME280;32961;51.936;4.788;2023-04-09T02:14:17;102541.00;;;8.88;98.37
47220;BME280;32961;51.936;4.788;2023-04-09T02:16:45;102540.88;;;8.90;97.93
47220;BME280;32961;51.936;4.788;2023-04-09T02:19:14;102538.88;;;8.93;97.61
47220;BME280;32961;51.936;4.788;2023-04-09T02:21:42;102538.78;;;8.95;97.49
47220;BME280;32961;51.936;4.788;2023-04-09T02:24:10;102544.03;;;8.98;97.27
47220;BME280;32961;51.936;4.788;2023-04-09T02:26:38;102534.25;;;8.95;96.97
47220;BME280;32961;51.936;4.788;2023-04-09T02:29:06;102534.94;;;8.99;96.74
47220;BME280;32961;51.936;4.788;2023-04-09T02:31:33;102536.56;;;9.02;97.13
47220;BME280;32961;51.936;4.788;2023-04-09T02:34:01;102531.16;;;9.02;96.93
47220;BME280;32961;51.936;4.788;2023-04-09T02:36:30;102526.50;;;9.04;96.53
47220;BME280;32961;51.936;4.788;2023-04-09T02:38:58;102521.97;;;9.04;96.61
47220;BME280;32961;51.936;4.788;2023-04-09T02:41:26;102517.50;;;9.03;96.42
47220;BME280;32961;51.936;4.788;2023-04-09T02:43:54;102521.06;;;9.04;96.46
47220;BME280;32961;51.936;4.788;2023-04-09T02:46:21;102511.97;;;9.05;96.33
47220;BME280;32961;51.936;4.788;2023-04-09T02:48:49;102514.69;;;9.05;96.21
47220;BME280;32961;51.936;4.788;2023-04-09T02:51:18;102506.47;;;9.06;95.82
47220;BME280;32961;51.936;4.788;2023-04-09T02:53:47;102505.59;;;9.06;95.37
47220;BME280;32961;51.936;4.788;2023-04-09T02:56:15;102508.50;;;9.03;96.12
47220;BME280;32961;51.936;4.788;2023-04-09T02:58:43;102507.44;;;9.05;95.77
47220;BME280;32961;51.936;4.788;2023-04-09T03:01:11;102507.34;;;9.07;95.79
47220;BME280;32961;51.936;4.788;2023-04-09T03:03:38;102502.69;;;9.09;95.61
47220;BME280;32961;51.936;4.788;2023-04-09T03:06:07;102502.59;;;9.10;95.50
47220;BME280;32961;51.936;4.788;2023-04-09T03:08:35;102496.50;;;9.07;95.52
47220;BME280;32961;51.936;4.788;2023-04-09T03:11:05;102498.34;;;9.06;95.90
47220;BME280;32961;51.936;4.788;2023-04-09T03:13:32;102499.09;;;9.08;95.57
47220;BME280;32961;51.936;4.788;2023-04-09T03:16:00;102495.44;;;9.09;95.52
47220;BME280;32961;51.936;4.788;2023-04-09T03:18:28;102501.91;;;9.07;95.72
47220;BME280;32961;51.936;4.788;2023-04-09T03:20:56;102495.69;;;9.05;95.72
47220;BME280;32961;51.936;4.788;2023-04-09T03:23:23;102502.00;;;9.05;95.77
47220;BME280;32961;51.936;4.788;2023-04-09T03:25:59;102499.09;;;9.08;95.74
47220;BME280;32961;51.936;4.788;2023-04-09T03:28:29;102491.94;;;9.07;95.65
47220;BME280;32961;51.936;4.788;2023-04-09T03:30:57;102486.50;;;9.07;95.82
47220;BME280;32961;51.936;4.788;2023-04-09T03:33:24;102481.75;;;9.11;95.74
47220;BME280;32961;51.936;4.788;2023-04-09T03:35:52;102482.75;;;9.10;95.55
47220;BME280;32961;51.936;4.788;2023-04-09T03:38:20;102483.78;;;9.07;95.37
47220;BME280;32961;51.936;4.788;2023-04-09T03:40:48;102479.25;;;9.08;95.51
47220;BME280;32961;51.936;4.788;2023-04-09T03:43:16;102473.84;;;9.08;95.34
47220;BME280;32961;51.936;4.788;2023-04-09T03:45:45;102471.22;;;9.06;95.29
47220;BME280;32961;51.936;4.788;2023-04-09T03:48:12;102471.41;;;9.03;95.20
47220;BME280;32961;51.936;4.788;2023-04-09T03:50:41;102474.00;;;9.05;95.17
47220;BME280;32961;51.936;4.788;2023-04-09T03:53:08;102473.03;;;9.06;94.97
47220;BME280;32961;51.936;4.788;2023-04-09T03:55:36;102471.41;;;9.03;94.90
47220;BME280;32961;51.936;4.788;2023-04-09T03:58:04;102465.19;;;9.01;95.26
47220;BME280;32961;51.936;4.788;2023-04-09T04:00:32;102452.53;;;9.02;94.67
47220;BME280;32961;51.936;4.788;2023-04-09T04:03:01;102464.34;;;9.01;95.05
47220;BME280;32961;51.936;4.788;2023-04-09T04:05:29;102455.22;;;9.02;95.04
47220;BME280;32961;51.936;4.788;2023-04-09T04:07:57;102463.16;;;9.05;95.18
47220;BME280;32961;51.936;4.788;2023-04-09T04:10:25;102458.63;;;9.05;94.78
47220;BME280;32961;51.936;4.788;2023-04-09T04:12:52;102454.97;;;9.06;94.91
47220;BME280;32961;51.936;4.788;2023-04-09T04:15:20;102458.53;;;9.07;94.94
47220;BME280;32961;51.936;4.788;2023-04-09T04:17:48;102458.63;;;9.05;94.89
47220;BME280;32961;51.936;4.788;2023-04-09T04:20:17;102471.22;;;9.06;94.78
47220;BME280;32961;51.936;4.788;2023-04-09T04:22:45;102459.50;;;9.06;95.36
47220;BME280;32961;51.936;4.788;2023-04-09T04:25:13;102456.69;;;9.07;95.25
47220;BME280;32961;51.936;4.788;2023-04-09T04:27:41;102460.28;;;9.08;95.10
47220;BME280;32961;51.936;4.788;2023-04-09T04:30:09;102449.53;;;9.06;95.05
47220;BME280;32961;51.936;4.788;2023-04-09T04:32:37;102459.50;;;9.06;94.99
47220;BME280;32961;51.936;4.788;2023-04-09T04:35:05;102452.25;;;9.06;95.09
47220;BME280;32961;51.936;4.788;2023-04-09T04:37:34;102445.66;;;9.10;94.84
47220;BME280;32961;51.936;4.788;2023-04-09T04:40:02;102452.16;;;9.08;94.52
47220;BME280;32961;51.936;4.788;2023-04-09T04:42:30;102454.06;;;9.06;95.07
47220;BME280;32961;51.936;4.788;2023-04-09T04:44:58;102447.78;;;9.05;94.87
47220;BME280;32961;51.936;4.788;2023-04-09T04:47:26;102449.59;;;9.05;94.69
47220;BME280;32961;51.936;4.788;2023-04-09T04:49:54;102454.97;;;9.06;94.46
47220;BME280;32961;51.936;4.788;2023-04-09T04:52:22;102462.31;;;9.04;94.43
47220;BME280;32961;51.936;4.788;2023-04-09T04:54:51;102460.56;;;9.03;94.67
47220;BME280;32961;51.936;4.788;2023-04-09T04:57:19;102459.59;;;9.04;94.32
47220;BME280;32961;51.936;4.788;2023-04-09T04:59:46;102463.09;;;9.06;94.45
47220;BME280;32961;51.936;4.788;2023-04-09T05:02:14;102461.25;;;9.07;94.04
47220;BME280;32961;51.936;4.788;2023-04-09T05:04:42;102477.63;;;9.05;94.94
47220;BME280;32961;51.936;4.788;2023-04-09T05:07:10;102471.28;;;9.05;94.87
47220;BME280;32961;51.936;4.788;2023-04-09T05:09:38;102462.09;;;9.07;94.82
47220;BME280;32961;51.936;4.788;2023-04-09T05:12:09;102465.69;;;9.08;94.69
47220;BME280;32961;51.936;4.788;2023-04-09T05:14:37;102462.09;;;9.07;94.47
47220;BME280;32961;51.936;4.788;2023-04-09T05:17:05;102468.41;;;9.08;94.48
47220;BME280;32961;51.936;4.788;2023-04-09T05:19:33;102472.94;;;9.07;94.70
47220;BME280;32961;51.936;4.788;2023-04-09T05:22:00;102480.13;;;9.08;94.66
47220;BME280;32961;51.936;4.788;2023-04-09T05:24:28;102473.94;;;9.06;94.81
47220;BME280;32961;51.936;4.788;2023-04-09T05:26:56;102474.63;;;9.10;94.36
47220;BME280;32961;51.936;4.788;2023-04-09T05:29:25;102469.47;;;9.05;94.55
47220;BME280;32961;51.936;4.788;2023-04-09T05:31:53;102474.09;;;9.03;94.87
47220;BME280;32961;51.936;4.788;2023-04-09T05:34:21;102471.28;;;9.05;95.10
47220;BME280;32961;51.936;4.788;2023-04-09T05:36:49;102481.97;;;9.08;95.12
47220;BME280;32961;51.936;4.788;2023-04-09T05:39:16;102477.34;;;9.10;95.32
47220;BME280;32961;51.936;4.788;2023-04-09T05:41:44;102479.94;;;9.11;95.62
47220;BME280;32961;51.936;4.788;2023-04-09T05:44:12;102469.00;;;9.13;95.62
47220;BME280;32961;51.936;4.788;2023-04-09T05:46:41;102470.84;;;9.12;95.50
47220;BME280;32961;51.936;4.788;2023-04-09T05:49:09;102469.94;;;9.12;95.56
47220;BME280;32961;51.936;4.788;2023-04-09T05:51:37;102484.41;;;9.12;95.76
47220;BME280;32961;51.936;4.788;2023-04-09T05:54:04;102488.84;;;9.13;95.60
47220;BME280;32961;51.936;4.788;2023-04-09T05:56:32;102484.41;;;9.12;95.37
47220;BME280;32961;51.936;4.788;2023-04-09T05:59:00;102485.38;;;9.11;95.16
47220;BME280;32961;51.936;4.788;2023-04-09T06:01:28;102486.34;;;9.10;95.16
47220;BME280;32961;51.936;4.788;2023-04-09T06:03:57;102485.25;;;9.13;94.90
47220;BME280;32961;51.936;4.788;2023-04-09T06:06:26;102488.84;;;9.13;94.66
47220;BME280;32961;51.936;4.788;2023-04-09T06:08:53;102493.28;;;9.14;94.83
47220;BME280;32961;51.936;4.788;2023-04-09T06:11:21;102487.81;;;9.16;94.61
47220;BME280;32961;51.936;4.788;2023-04-09T06:13:49;102490.41;;;9.18;94.76
47220;BME280;32961;51.936;4.788;2023-04-09T06:16:18;102492.16;;;9.19;94.60
47220;BME280;32961;51.936;4.788;2023-04-09T06:18:47;102487.50;;;9.21;94.31
47220;BME280;32961;51.936;4.788;2023-04-09T06:21:17;102482.16;;;9.19;94.47
47220;BME280;32961;51.936;4.788;2023-04-09T06:23:45;102485.78;;;9.20;94.46
47220;BME280;32961;51.936;4.788;2023-04-09T06:26:13;102485.78;;;9.20;94.46
47220;BME280;32961;51.936;4.788;2023-04-09T06:28:41;102490.31;;;9.19;94.46
47220;BME280;32961;51.936;4.788;2023-04-09T06:31:09;102493.13;;;9.18;94.45
47220;BME280;32961;51.936;4.788;2023-04-09T06:33:37;102490.50;;;9.16;94.30
47220;BME280;32961;51.936;4.788;2023-04-09T06:36:06;102494.09;;;9.17;94.63
47220;BME280;32961;51.936;4.788;2023-04-09T06:38:35;102497.47;;;9.20;94.77
47220;BME280;32961;51.936;4.788;2023-04-09T06:41:03;102501.06;;;9.21;94.57
47220;BME280;32961;51.936;4.788;2023-04-09T06:43:33;102502.91;;;9.20;94.61
47220;BME280;32961;51.936;4.788;2023-04-09T06:46:02;102500.19;;;9.20;94.65
47220;BME280;32961;51.936;4.788;2023-04-09T06:48:30;102503.75;;;9.21;94.63
47220;BME280;32961;51.936;4.788;2023-04-09T06:50:58;102509.88;;;9.24;94.00
47220;BME280;32961;51.936;4.788;2023-04-09T06:53:26;102508.06;;;9.25;94.08
47220;BME280;32961;51.936;4.788;2023-04-09T06:55:55;102509.00;;;9.24;93.77
47220;BME280;32961;51.936;4.788;2023-04-09T06:58:23;102505.34;;;9.25;93.72
47220;BME280;32961;51.936;4.788;2023-04-09T07:00:51;102510.75;;;9.25;93.83
47220;BME280;32961;51.936;4.788;2023-04-09T07:03:18;102509.00;;;9.24;93.57
47220;BME280;32961;51.936;4.788;2023-04-09T07:05:46;102511.53;;;9.27;93.33
47220;BME280;32961;51.936;4.788;2023-04-09T07:08:15;102508.91;;;9.25;93.24
47220;BME280;32961;51.936;4.788;2023-04-09T07:10:42;102501.66;;;9.26;93.16
47220;BME280;32961;51.936;4.788;2023-04-09T07:13:14;102503.31;;;9.28;92.97
47220;BME280;32961;51.936;4.788;2023-04-09T07:15:42;102499.44;;;9.32;92.78
47220;BME280;32961;51.936;4.788;2023-04-09T07:18:10;102507.56;;;9.32;92.51
47220;BME280;32961;51.936;4.788;2023-04-09T07:20:37;102497.56;;;9.33;92.42
47220;BME280;32961;51.936;4.788;2023-04-09T07:23:05;102501.97;;;9.36;92.34
47220;BME280;32961;51.936;4.788;2023-04-09T07:25:33;102509.22;;;9.35;92.33
47220;BME280;32961;51.936;4.788;2023-04-09T07:28:01;102500.97;;;9.37;91.90
47220;BME280;32961;51.936;4.788;2023-04-09T07:30:30;102509.22;;;9.35;91.95
47220;BME280;32961;51.936;4.788;2023-04-09T07:32:58;102497.56;;;9.33;91.50
47220;BME280;32961;51.936;4.788;2023-04-09T07:35:26;102500.28;;;9.33;91.77
47220;BME280;32961;51.936;4.788;2023-04-09T07:37:54;102497.56;;;9.33;91.93
47220;BME280;32961;51.936;4.788;2023-04-09T07:40:22;102499.16;;;9.37;91.93
47220;BME280;32961;51.936;4.788;2023-04-09T07:42:50;102503.50;;;9.40;91.54
47220;BME280;32961;51.936;4.788;2023-04-09T07:45:18;102503.69;;;9.37;91.41
47220;BME280;32961;51.936;4.788;2023-04-09T07:47:48;102505.53;;;9.36;91.25
47220;BME280;32961;51.936;4.788;2023-04-09T07:50:15;102509.31;;;9.34;91.20
47220;BME280;32961;51.936;4.788;2023-04-09T07:52:43;102503.09;;;9.31;91.11
47220;BME280;32961;51.936;4.788;2023-04-09T07:55:11;102503.09;;;9.31;91.41
47220;BME280;32961;51.936;4.788;2023-04-09T07:57:39;102502.94;;;9.35;91.55
47220;BME280;32961;51.936;4.788;2023-04-09T08:00:09;102506.41;;;9.37;91.65
47220;BME280;32961;51.936;4.788;2023-04-09T08:02:37;102509.03;;;9.38;91.48
47220;BME280;32961;51.936;4.788;2023-04-09T08:05:08;102512.72;;;9.37;90.97
47220;BME280;32961;51.936;4.788;2023-04-09T08:07:36;102515.31;;;9.39;90.48
47220;BME280;32961;51.936;4.788;2023-04-09T08:10:04;102507.66;;;9.31;90.66
47220;BME280;32961;51.936;4.788;2023-04-09T08:12:33;102510.16;;;9.34;90.96
47220;BME280;32961;51.936;4.788;2023-04-09T08:15:00;102510.00;;;9.37;90.71
47220;BME280;32961;51.936;4.788;2023-04-09T08:17:29;102510.00;;;9.37;90.57
47220;BME280;32961;51.936;4.788;2023-04-09T08:19:57;102508.16;;;9.38;89.97
47220;BME280;32961;51.936;4.788;2023-04-09T08:22:26;102503.88;;;9.34;89.89
47220;BME280;32961;51.936;4.788;2023-04-09T08:24:55;102500.28;;;9.33;89.53
47220;BME280;32961;51.936;4.788;2023-04-09T08:27:25;102504.69;;;9.36;89.17
47220;BME280;32961;51.936;4.788;2023-04-09T08:29:52;102502.94;;;9.35;89.45
47220;BME280;32961;51.936;4.788;2023-04-09T08:32:20;102501.84;;;9.37;89.38
47220;BME280;32961;51.936;4.788;2023-04-09T08:34:48;102501.75;;;9.39;89.28
47220;BME280;32961;51.936;4.788;2023-04-09T08:37:16;102506.00;;;9.43;89.21
47220;BME280;32961;51.936;4.788;2023-04-09T08:39:45;102507.47;;;9.48;89.13
47220;BME280;32961;51.936;4.788;2023-04-09T08:42:13;102509.81;;;9.55;88.71
47220;BME280;32961;51.936;4.788;2023-04-09T08:44:42;102504.19;;;9.58;88.04
47220;BME280;32961;51.936;4.788;2023-04-09T08:47:10;102520.16;;;9.62;87.64
47220;BME280;32961;51.936;4.788;2023-04-09T08:49:38;102519.13;;;9.65;87.02
47220;BME280;32961;51.936;4.788;2023-04-09T08:52:07;102515.34;;;9.68;87.07
47220;BME280;32961;51.936;4.788;2023-04-09T08:54:35;102524.91;;;9.73;87.07
47220;BME280;32961;51.936;4.788;2023-04-09T08:57:07;102519.88;;;9.82;86.69
47220;BME280;32961;51.936;4.788;2023-04-09T08:59:34;102509.78;;;9.84;86.74
47220;BME280;32961;51.936;4.788;2023-04-09T09:02:07;102508.50;;;9.89;86.99
47220;BME280;32961;51.936;4.788;2023-04-09T09:04:45;102515.22;;;9.98;86.33
47220;BME280;32961;51.936;4.788;2023-04-09T09:07:13;102505.31;;;9.97;86.36
47220;BME280;32961;51.936;4.788;2023-04-09T09:09:52;102507.81;;;10.00;86.24
47220;BME280;32961;51.936;4.788;2023-04-09T09:12:36;102504.69;;;10.06;86.55
47220;BME280;32961;51.936;4.788;2023-04-09T09:15:23;102504.97;;;10.16;86.56
47220;BME280;32961;51.936;4.788;2023-04-09T09:17:53;102507.38;;;10.21;86.66
47220;BME280;32961;51.936;4.788;2023-04-09T09:20:23;102500.00;;;10.23;86.03
47220;BME280;32961;51.936;4.788;2023-04-09T09:22:53;102513.38;;;10.26;86.35
47220;BME280;32961;51.936;4.788;2023-04-09T09:25:21;102497.56;;;10.33;86.38
47220;BME280;32961;51.936;4.788;2023-04-09T09:27:53;102498.59;;;10.44;86.28
47220;BME280;32961;51.936;4.788;2023-04-09T09:30:22;102494.97;;;10.58;85.35
47220;BME280;32961;51.936;4.788;2023-04-09T09:32:51;102499.22;;;10.63;84.39
47220;BME280;32961;51.936;4.788;2023-04-09T09:35:20;102499.97;;;10.65;83.45
47220;BME280;32961;51.936;4.788;2023-04-09T09:38:00;102498.00;;;10.67;83.46
47220;BME280;32961;51.936;4.788;2023-04-09T09:40:28;102498.25;;;10.76;83.64
47220;BME280;32961;51.936;4.788;2023-04-09T09:42:57;102494.91;;;10.86;82.69
47220;BME280;32961;51.936;4.788;2023-04-09T09:45:25;102487.00;;;10.96;82.78
47220;BME280;32961;51.936;4.788;2023-04-09T09:47:54;102481.47;;;11.10;82.26
47220;BME280;32961;51.936;4.788;2023-04-09T09:50:23;102489.06;;;11.18;82.48
47220;BME280;32961;51.936;4.788;2023-04-09T09:52:57;102482.22;;;11.25;81.98
47220;BME280;32961;51.936;4.788;2023-04-09T09:55:26;102475.38;;;11.32;81.05
47220;BME280;32961;51.936;4.788;2023-04-09T09:57:59;102472.19;;;11.38;81.24
47220;BME280;32961;51.936;4.788;2023-04-09T10:00:31;102457.38;;;11.55;79.86
47220;BME280;32961;51.936;4.788;2023-04-09T10:03:09;102465.22;;;11.60;80.50
47220;BME280;32961;51.936;4.788;2023-04-09T10:05:39;102460.94;;;11.69;79.92
47220;BME280;32961;51.936;4.788;2023-04-09T10:08:08;102452.00;;;11.80;80.44
47220;BME280;32961;51.936;4.788;2023-04-09T10:10:38;102450.09;;;11.93;79.51
47220;BME280;32961;51.936;4.788;2023-04-09T10:13:14;102449.22;;;12.06;78.86
47220;BME280;32961;51.936;4.788;2023-04-09T10:15:47;102448.81;;;12.23;78.61
47220;BME280;32961;51.936;4.788;2023-04-09T10:18:16;102436.97;;;12.35;77.58
47220;BME280;32961;51.936;4.788;2023-04-09T10:20:49;102433.66;;;12.43;77.32
47220;BME280;32961;51.936;4.788;2023-04-09T10:23:23;102432.34;;;12.60;76.04
47220;BME280;32961;51.936;4.788;2023-04-09T10:25:53;102431.03;;;12.66;75.53
47220;BME280;32961;51.936;4.788;2023-04-09T10:28:23;102423.50;;;12.81;76.04
47220;BME280;32961;51.936;4.788;2023-04-09T10:30:52;102422.78;;;13.02;74.98
47220;BME280;32961;51.936;4.788;2023-04-09T10:33:22;102419.06;;;13.14;73.00
47220;BME280;32961;51.936;4.788;2023-04-09T10:35:52;102424.53;;;13.25;72.29
47220;BME280;32961;51.936;4.788;2023-04-09T10:38:34;102420.81;;;13.26;71.36
47220;BME280;32961;51.936;4.788;2023-04-09T10:41:11;102414.63;;;13.24;71.75
47220;BME280;32961;51.936;4.788;2023-04-09T10:43:42;102417.34;;;13.36;72.68
47220;BME280;32961;51.936;4.788;2023-04-09T10:46:27;102408.44;;;13.56;72.49
47220;BME280;32961;51.936;4.788;2023-04-09T10:49:08;102409.78;;;13.73;71.73
47220;BME280;32961;51.936;4.788;2023-04-09T10:51:37;102399.56;;;13.75;70.65
47220;BME280;32961;51.936;4.788;2023-04-09T10:54:39;102401.47;;;13.75;69.32
47220;BME280;32961;51.936;4.788;2023-04-09T10:57:10;102389.91;;;13.71;68.28
47220;BME280;32961;51.936;4.788;2023-04-09T10:59:41;102398.25;;;13.70;69.10
47220;BME280;32961;51.936;4.788;2023-04-09T11:02:32;102395.47;;;13.81;70.33
47220;BME280;32961;51.936;4.788;2023-04-09T11:05:14;102388.69;;;14.08;70.23
47220;BME280;32961;51.936;4.788;2023-04-09T11:07:46;102385.31;;;14.37;69.08
47220;BME280;32961;51.936;4.788;2023-04-09T11:10:16;102379.59;;;14.61;68.11
47220;BME280;32961;51.936;4.788;2023-04-09T11:12:45;102376.28;;;14.79;66.79
47220;BME280;32961;51.936;4.788;2023-04-09T11:15:18;102367.31;;;14.98;67.00
47220;BME280;32961;51.936;4.788;2023-04-09T11:17:47;102372.91;;;15.17;65.59
47220;BME280;32961;51.936;4.788;2023-04-09T11:20:16;102372.53;;;15.32;64.84
47220;BME280;32961;51.936;4.788;2023-04-09T11:22:46;102368.38;;;15.47;64.40
47220;BME280;32961;51.936;4.788;2023-04-09T11:25:18;102360.22;;;15.67;62.08
47220;BME280;32961;51.936;4.788;2023-04-09T11:27:46;102359.38;;;15.76;62.20
47220;BME280;32961;51.936;4.788;2023-04-09T11:30:14;102354.78;;;15.86;61.29
47220;BME280;32961;51.936;4.788;2023-04-09T11:32:43;102349.31;;;16.06;61.14
47220;BME280;32961;51.936;4.788;2023-04-09T11:35:12;102354.97;;;16.14;61.03
47220;BME280;32961;51.936;4.788;2023-04-09T11:37:43;102349.19;;;16.17;61.04
47220;BME280;32961;51.936;4.788;2023-04-09T11:40:15;102353.53;;;16.10;60.46
47220;BME280;32961;51.936;4.788;2023-04-09T11:42:44;102353.06;;;16.05;59.89
47220;BME280;32961;51.936;4.788;2023-04-09T11:45:13;102357.84;;;15.93;59.48
47220;BME280;32961;51.936;4.788;2023-04-09T11:47:44;102358.22;;;15.79;59.85
47220;BME280;32961;51.936;4.788;2023-04-09T11:50:13;102359.06;;;15.69;59.67
47220;BME280;32961;51.936;4.788;2023-04-09T11:52:42;102358.03;;;15.61;59.87
47220;BME280;32961;51.936;4.788;2023-04-09T11:55:10;102356.63;;;15.66;59.50
47220;BME280;32961;51.936;4.788;2023-04-09T11:57:39;102356.03;;;15.72;58.40
47220;BME280;32961;51.936;4.788;2023-04-09T12:00:10;102355.75;;;15.66;58.22
47220;BME280;32961;51.936;4.788;2023-04-09T12:02:40;102357.78;;;15.73;58.54
47220;BME280;32961;51.936;4.788;2023-04-09T12:05:11;102352.06;;;15.96;58.59
47220;BME280;32961;51.936;4.788;2023-04-09T12:07:44;102352.53;;;16.01;58.01
47220;BME280;32961;51.936;4.788;2023-04-09T12:10:25;102353.03;;;15.76;57.63
47220;BME280;32961;51.936;4.788;2023-04-09T12:12:54;102341.31;;;15.64;58.97
47220;BME280;32961;51.936;4.788;2023-04-09T12:15:23;102339.59;;;15.63;59.05
47220;BME280;32961;51.936;4.788;2023-04-09T12:17:53;102338.59;;;15.73;59.25
47220;BME280;32961;51.936;4.788;2023-04-09T12:20:34;102339.94;;;15.99;57.69
47220;BME280;32961;51.936;4.788;2023-04-09T12:23:04;102354.09;;;16.24;57.81
47220;BME280;32961;51.936;4.788;2023-04-09T12:25:33;102351.63;;;16.30;56.86
47220;BME280;32961;51.936;4.788;2023-04-09T12:28:02;102354.22;;;16.22;55.63
47220;BME280;32961;51.936;4.788;2023-04-09T12:30:31;102353.06;;;16.05;57.04
47220;BME280;32961;51.936;4.788;2023-04-09T12:33:00;102347.31;;;15.98;57.76
47220;BME280;32961;51.936;4.788;2023-04-09T12:35:28;102340.81;;;15.90;57.62
47220;BME280;32961;51.936;4.788;2023-04-09T12:37:57;102338.66;;;15.83;57.33
47220;BME280;32961;51.936;4.788;2023-04-09T12:40:26;102342.66;;;15.89;57.92
47220;BME280;32961;51.936;4.788;2023-04-09T12:42:54;102347.72;;;15.94;58.07
47220;BME280;32961;51.936;4.788;2023-04-09T12:45:22;102347.16;;;16.19;58.16
47220;BME280;32961;51.936;4.788;2023-04-09T12:47:49;102343.09;;;16.53;57.32
47220;BME280;32961;51.936;4.788;2023-04-09T12:50:18;102341.75;;;16.67;55.68
47220;BME280;32961;51.936;4.788;2023-04-09T12:52:46;102340.34;;;16.63;55.70
47220;BME280;32961;51.936;4.788;2023-04-09T12:55:15;102347.66;;;16.72;55.51
47220;BME280;32961;51.936;4.788;2023-04-09T12:57:44;102348.78;;;16.79;54.60
47220;BME280;32961;51.936;4.788;2023-04-09T13:00:14;102337.81;;;16.79;54.20
47220;BME280;32961;51.936;4.788;2023-04-09T13:02:41;102333.09;;;16.72;53.75
47220;BME280;32961;51.936;4.788;2023-04-09T13:05:12;102329.34;;;16.63;54.21
47220;BME280;32961;51.936;4.788;2023-04-09T13:07:40;102336.06;;;16.78;54.42